Sumise Maru No.22 — JD3589 — position and weather

sailwx.info

Track history (hours):
 
Tides and Currents Weather Stations Pressure Air Temp Water Temp Dewpoint Dewpoint Depression Visibility Wind Speed Wind Dir Waves Ship Positions

Sumise Maru No.22

Last reported at 2018-Apr-24 12:30 UTC. Time now 2018-Apr-24 12:49 UTC.
Position N 35°37' E 139°46'.

Length 116 m; draft 6.8 m.

Type: Cargo ship. MMSI: 431005246.

Date/timePositionNaut miles runAvg speedWind from/ knotsBaromVisibWave heightAir tempDewpointWater temp
2018-Apr-24 12:30N 35°37' E 139°46'511.1
2018-Apr-24 12:00N 35°33' E 139°50'510.9
2018-Apr-24 11:30N 35°28' E 139°51'612.8
2018-Apr-24 11:00N 35°23' E 139°46'611.5
2018-Apr-24 10:30N 35°17' E 139°45'611.8
2018-Apr-24 10:00N 35°11' E 139°46'613.0
2018-Apr-24 09:30N 35°05' E 139°44'612.6
2018-Apr-24 09:00N 34°59' E 139°42'610.8
2018-Apr-24 08:30N 34°54' E 139°45'5 9.2
2018-Apr-24 07:58N 34°51' E 139°50'911.3
2018-Apr-24 07:08N 34°54' E 140°01'211.9
2018-Apr-24 07:00N 34°55' E 140°03'  
2018-Apr-20 17:56N 35°02' E 140°22'713.7
2018-Apr-20 17:25N 34°59' E 140°14'613.5
2018-Apr-20 17:00N 34°56' E 140°08'1612.2
2018-Apr-20 15:43N 34°51' E 139°50'312.4
2018-Apr-20 15:30N 34°53' E 139°47'713.8
2018-Apr-20 15:00N 34°58' E 139°42'713.3
2018-Apr-20 14:30N 35°05' E 139°43'713.7
2018-Apr-20 14:01N 35°11' E 139°46'612.9
2018-Apr-20 13:30N 35°18' E 139°44'612.7
2018-Apr-20 13:00N 35°24' E 139°43'713.4
2018-Apr-20 12:30N 35°28' E 139°49'611.0
2018-Apr-20 12:00N 35°34' E 139°49'5 9.5
2018-Apr-20 11:29N 35°38' E 139°46'0 0.0
2018-Apr-20 07:50N 35°38' E 139°45'0 0.0
2018-Apr-20 07:23N 35°38' E 139°45'0 0.0
2018-Apr-20 06:47N 35°38' E 139°45'0 0.0
2018-Apr-20 06:29N 35°38' E 139°45'0 0.0
2018-Apr-20 05:11N 35°38' E 139°46'0 1.4
2018-Apr-20 05:00N 35°38' E 139°46'5 9.6
2018-Apr-20 04:31N 35°34' E 139°49'4 4.8
2018-Apr-20 03:44N 35°33' E 139°54'0 0.0
2018-Apr-20 03:11N 35°33' E 139°54'0 0.1
2018-Apr-20 02:56N 35°33' E 139°54'0 0.0
2018-Apr-20 02:29N 35°33' E 139°54'0 0.0
2018-Apr-20 01:59N 35°33' E 139°54'0 0.0
2018-Apr-20 01:20N 35°33' E 139°54'0 0.0
2018-Apr-20 00:59N 35°33' E 139°54'0 0.0
2018-Apr-20 00:23N 35°33' E 139°54'0 0.0
2018-Apr-19 23:44N 35°33' E 139°54'0 0.1
2018-Apr-19 23:02N 35°33' E 139°54'0 0.0
2018-Apr-19 22:56N 35°33' E 139°54'0 0.0
2018-Apr-19 21:59N 35°33' E 139°54'4 9.4
2018-Apr-19 21:30N 35°29' E 139°52'713.0
2018-Apr-19 21:00N 35°24' E 139°46'612.4
2018-Apr-19 20:30N 35°18' E 139°45'612.5
2018-Apr-19 20:00N 35°12' E 139°47'612.6
2018-Apr-19 19:30N 35°06' E 139°45'612.8
2018-Apr-19 19:00N 35°01' E 139°39'713.6
2018-Apr-19 18:30N 34°57' E 139°33'814.5
2018-Apr-19 17:59N 34°53' E 139°25'914.1
2018-Apr-19 17:19N 34°47' E 139°16'513.8
2018-Apr-19 16:58N 34°43' E 139°13'714.7
2018-Apr-19 16:30N 34°39' E 139°07'914.1
2018-Apr-19 15:53N 34°32' E 138°59'613.4
2018-Apr-19 15:28N 34°33' E 138°53'612.5
2018-Apr-19 14:57N 34°36' E 138°46'612.9
2018-Apr-19 14:30N 34°40' E 138°41'613.0
2018-Apr-19 14:00N 34°46' E 138°39'713.1
2018-Apr-19 13:30N 34°53' E 138°37'613.0
2018-Apr-19 13:00N 34°59' E 138°35'4 8.6
2018-Apr-19 12:30N 35°00' E 138°30'1 1.7
2018-Apr-19 11:58N 34°60' E 138°30'0 0.0
2018-Apr-19 11:28N 34°60' E 138°30'0 0.0
2018-Apr-19 10:58N 34°60' E 138°30'0 0.0
2018-Apr-19 10:28N 34°60' E 138°30'0 0.0
2018-Apr-19 09:58N 34°60' E 138°30'0 0.0
2018-Apr-19 09:28N 34°60' E 138°30'0 0.0
2018-Apr-19 08:58N 34°60' E 138°30'0 0.0
2018-Apr-19 08:28N 34°60' E 138°30'0 0.0
2018-Apr-19 07:58N 34°60' E 138°30'0 0.0
2018-Apr-19 07:28N 34°60' E 138°30'0 0.0
2018-Apr-19 06:58N 34°60' E 138°30'0 0.0
2018-Apr-19 06:28N 34°60' E 138°30'0 0.0
2018-Apr-19 05:55N 34°60' E 138°30'0 0.0
2018-Apr-19 05:28N 34°60' E 138°30'0 0.0
2018-Apr-19 04:58N 34°60' E 138°30'0 0.4
2018-Apr-19 04:30N 34°60' E 138°30'3 5.2
2018-Apr-19 04:00N 35°01' E 138°33'713.0
2018-Apr-19 03:30N 34°54' E 138°31'612.9
2018-Apr-19 03:00N 34°49' E 138°28'612.9
2018-Apr-19 02:30N 34°43' E 138°25'712.4
2018-Apr-19 01:58N 34°37' E 138°21'611.6
2018-Apr-19 01:29N 34°32' E 138°17'912.5
2018-Apr-19 00:45N 34°28' E 138°07'312.4
2018-Apr-19 00:29N 34°27' E 138°03'15510.3
2018-Apr-18 09:30N 33°50' E 135°02'612.4
2018-Apr-18 09:00N 33°55' E 134°58'612.2
2018-Apr-18 08:30N 34°01' E 134°58'713.1
2018-Apr-18 08:01N 34°08' E 134°58'714.9
2018-Apr-18 07:30N 34°15' E 134°59'713.8
2018-Apr-18 07:01N 34°22' E 134°60'713.4
2018-Apr-18 06:30N 34°29' E 135°02'713.7
2018-Apr-18 06:01N 34°35' E 135°03'713.7
2018-Apr-18 05:31N 34°37' E 134°55'714.6
2018-Apr-18 05:00N 34°39' E 134°47'612.9
2018-Apr-18 04:31N 34°41' E 134°39'612.7
2018-Apr-18 04:01N 34°42' E 134°32'8 9.2
2018-Apr-18 03:06N 34°45' E 134°22'0 0.5
2018-Apr-18 03:00N 34°45' E 134°22'0 0.0
2018-Apr-17 23:07N 34°45' E 134°22'0 0.0
2018-Apr-17 22:49N 34°45' E 134°22'0 0.0
2018-Apr-17 22:19N 34°45' E 134°22'0 0.0
2018-Apr-17 21:55N 34°45' E 134°22'0 0.0
2018-Apr-17 21:13N 34°45' E 134°22'0 0.0
2018-Apr-17 20:55N 34°45' E 134°22'0 0.0
2018-Apr-17 15:37N 34°45' E 134°22'0 0.0
2018-Apr-17 15:19N 34°45' E 134°22'0 0.0
2018-Apr-17 14:57N 34°45' E 134°22'2 3.7
2018-Apr-17 14:29N 34°43' E 134°22'2 5.0
2018-Apr-17 14:00N 34°41' E 134°24'0 0.1
2018-Apr-17 13:28N 34°41' E 134°24'0 0.0
2018-Apr-17 12:58N 34°41' E 134°24'0 0.0
2018-Apr-17 12:22N 34°41' E 134°24'0 0.1
2018-Apr-17 11:58N 34°41' E 134°24'0 0.0
2018-Apr-17 11:22N 34°41' E 134°24'0 0.4
2018-Apr-17 10:59N 34°41' E 134°24'612.1
2018-Apr-17 10:30N 34°42' E 134°31'713.3
2018-Apr-17 10:00N 34°42' E 134°39'713.1
2018-Apr-17 09:30N 34°39' E 134°46'713.7
2018-Apr-17 09:00N 34°37' E 134°54'612.7
2018-Apr-17 08:30N 34°37' E 135°02'4 8.7
2018-Apr-17 08:00N 34°33' E 135°05'713.4
2018-Apr-17 07:30N 34°27' E 135°03'613.0
2018-Apr-17 07:00N 34°21' E 135°01'611.4
2018-Apr-17 06:30N 34°15' E 134°59'511.0
2018-Apr-17 06:00N 34°09' E 134°60'612.2
2018-Apr-17 05:30N 34°03' E 134°59'612.6
2018-Apr-17 05:00N 33°57' E 134°59'611.6
2018-Apr-17 04:30N 33°51' E 135°00'712.1
2018-Apr-17 03:55N 33°46' E 135°07'17212.0
2018-Apr-16 13:36N 34°27' E 138°29'713.1
2018-Apr-16 13:03N 34°29' E 138°38'212.9
2018-Apr-16 12:52N 34°29' E 138°40'1012.8
2018-Apr-16 12:07N 34°30' E 138°52'112.6
2018-Apr-16 12:00N 34°31' E 138°54'611.7
2018-Apr-16 11:29N 34°33' E 139°00'612.8
2018-Apr-16 10:59N 34°38' E 139°05'913.1
2018-Apr-16 10:16N 34°46' E 139°12'313.3
2018-Apr-16 10:00N 34°48' E 139°15'712.7
2018-Apr-16 09:30N 34°52' E 139°21'812.1
2018-Apr-16 08:49N 34°57' E 139°29'412.2
2018-Apr-16 08:30N 34°60' E 139°33'612.1
2018-Apr-16 08:00N 35°03' E 139°38'713.2
2018-Apr-16 07:30N 35°08' E 139°44'612.7
2018-Apr-16 07:00N 35°14' E 139°46'611.6
2018-Apr-16 06:30N 35°19' E 139°43'612.2
2018-Apr-16 06:00N 35°25' E 139°42'1 1.4
2018-Apr-16 05:29N 35°26' E 139°41'0 0.0
2018-Apr-16 04:59N 35°26' E 139°41'0 0.0
2018-Apr-16 04:29N 35°26' E 139°41'0 0.0
2018-Apr-16 03:54N 35°26' E 139°41'0 0.0
2018-Apr-16 03:29N 35°26' E 139°41'0 0.0
2018-Apr-16 03:00N 35°26' E 139°41'0 0.0
2018-Apr-16 02:26N 35°26' E 139°41'0 0.0
2018-Apr-16 01:59N 35°26' E 139°41'0 0.0
2018-Apr-16 01:29N 35°26' E 139°41'0 0.0
2018-Apr-16 00:59N 35°26' E 139°41'0 0.0
2018-Apr-16 00:26N 35°26' E 139°41'0 0.0
2018-Apr-15 23:59N 35°26' E 139°41'0 0.0
2018-Apr-15 23:26N 35°26' E 139°41'0 0.0
2018-Apr-15 23:00N 35°26' E 139°41'0 0.0
2018-Apr-15 22:29N 35°26' E 139°41'2 3.2
2018-Apr-15 22:00N 35°26' E 139°43'714.0
2018-Apr-15 21:30N 35°30' E 139°49'510.5
2018-Apr-15 21:00N 35°35' E 139°47'3 0.2
2018-Apr-15 05:10N 35°38' E 139°45'0 0.3
2018-Apr-15 05:00N 35°38' E 139°46'2 4.5
2018-Apr-15 04:30N 35°36' E 139°47'611.4
2018-Apr-15 04:00N 35°33' E 139°52'2 0.6
2018-Apr-15 01:02N 35°33' E 139°55'0 0.0
2018-Apr-15 00:35N 35°33' E 139°55'0 0.0
2018-Apr-15 00:23N 35°33' E 139°55'0 0.0
2018-Apr-14 22:20N 35°33' E 139°55'0 0.0
2018-Apr-14 21:50N 35°33' E 139°55'0 0.0
2018-Apr-14 19:59N 35°33' E 139°55'0 0.0
2018-Apr-14 19:26N 35°33' E 139°55'0 0.0
2018-Apr-14 18:56N 35°33' E 139°55'0 0.1
2018-Apr-14 18:23N 35°33' E 139°55'2 4.7
2018-Apr-14 18:00N 35°31' E 139°54'510.8
2018-Apr-14 17:30N 35°27' E 139°50'612.5
2018-Apr-14 17:00N 35°22' E 139°45'611.9
2018-Apr-14 16:30N 35°16' E 139°47'713.0
2018-Apr-14 16:00N 35°09' E 139°47'611.9
2018-Apr-14 15:30N 35°04' E 139°44'612.6
2018-Apr-14 15:00N 34°60' E 139°38'713.3
2018-Apr-14 14:31N 34°56' E 139°31'814.4
2018-Apr-14 13:57N 34°52' E 139°23'814.7
2018-Apr-14 13:24N 34°46' E 139°16'715.2
2018-Apr-14 12:56N 34°41' E 139°10'  
Track history (hours):
 
Tides and Currents Weather Stations Pressure Air Temp Water Temp Dewpoint Dewpoint Depression Visibility Wind Speed Wind Dir Waves Ship Positions

Sumise Maru No.22

Last reported at 2018-Apr-24 12:30 UTC. Time now 2018-Apr-24 12:49 UTC.
Position N 35°37' E 139°46'.

Length 116 m; draft 6.8 m.

Type: Cargo ship. MMSI: 431005246.

Date/timePositionNaut miles runAvg speedWind from/ knotsBaromVisibWave heightAir tempDewpointWater temp
2018-Apr-24 12:30N 35°37' E 139°46'511.1
2018-Apr-24 12:00N 35°33' E 139°50'510.9
2018-Apr-24 11:30N 35°28' E 139°51'612.8
2018-Apr-24 11:00N 35°23' E 139°46'611.5
2018-Apr-24 10:30N 35°17' E 139°45'611.8
2018-Apr-24 10:00N 35°11' E 139°46'613.0
2018-Apr-24 09:30N 35°05' E 139°44'612.6
2018-Apr-24 09:00N 34°59' E 139°42'610.8
2018-Apr-24 08:30N 34°54' E 139°45'5 9.2
2018-Apr-24 07:58N 34°51' E 139°50'911.3
2018-Apr-24 07:08N 34°54' E 140°01'211.9
2018-Apr-24 07:00N 34°55' E 140°03'  
2018-Apr-20 17:56N 35°02' E 140°22'713.7
2018-Apr-20 17:25N 34°59' E 140°14'613.5
2018-Apr-20 17:00N 34°56' E 140°08'1612.2
2018-Apr-20 15:43N 34°51' E 139°50'312.4
2018-Apr-20 15:30N 34°53' E 139°47'713.8
2018-Apr-20 15:00N 34°58' E 139°42'713.3
2018-Apr-20 14:30N 35°05' E 139°43'713.7
2018-Apr-20 14:01N 35°11' E 139°46'612.9
2018-Apr-20 13:30N 35°18' E 139°44'612.7
2018-Apr-20 13:00N 35°24' E 139°43'713.4
2018-Apr-20 12:30N 35°28' E 139°49'611.0
2018-Apr-20 12:00N 35°34' E 139°49'5 9.5
2018-Apr-20 11:29N 35°38' E 139°46'0 0.0
2018-Apr-20 07:50N 35°38' E 139°45'0 0.0
2018-Apr-20 07:23N 35°38' E 139°45'0 0.0
2018-Apr-20 06:47N 35°38' E 139°45'0 0.0
2018-Apr-20 06:29N 35°38' E 139°45'0 0.0
2018-Apr-20 05:11N 35°38' E 139°46'0 1.4
2018-Apr-20 05:00N 35°38' E 139°46'5 9.6
2018-Apr-20 04:31N 35°34' E 139°49'4 4.8
2018-Apr-20 03:44N 35°33' E 139°54'0 0.0
2018-Apr-20 03:11N 35°33' E 139°54'0 0.1
2018-Apr-20 02:56N 35°33' E 139°54'0 0.0
2018-Apr-20 02:29N 35°33' E 139°54'0 0.0
2018-Apr-20 01:59N 35°33' E 139°54'0 0.0
2018-Apr-20 01:20N 35°33' E 139°54'0 0.0
2018-Apr-20 00:59N 35°33' E 139°54'0 0.0
2018-Apr-20 00:23N 35°33' E 139°54'0 0.0
2018-Apr-19 23:44N 35°33' E 139°54'0 0.1
2018-Apr-19 23:02N 35°33' E 139°54'0 0.0
2018-Apr-19 22:56N 35°33' E 139°54'0 0.0
2018-Apr-19 21:59N 35°33' E 139°54'4 9.4
2018-Apr-19 21:30N 35°29' E 139°52'713.0
2018-Apr-19 21:00N 35°24' E 139°46'612.4
2018-Apr-19 20:30N 35°18' E 139°45'612.5
2018-Apr-19 20:00N 35°12' E 139°47'612.6
2018-Apr-19 19:30N 35°06' E 139°45'612.8
2018-Apr-19 19:00N 35°01' E 139°39'713.6
2018-Apr-19 18:30N 34°57' E 139°33'814.5
2018-Apr-19 17:59N 34°53' E 139°25'914.1
2018-Apr-19 17:19N 34°47' E 139°16'513.8
2018-Apr-19 16:58N 34°43' E 139°13'714.7
2018-Apr-19 16:30N 34°39' E 139°07'914.1
2018-Apr-19 15:53N 34°32' E 138°59'613.4
2018-Apr-19 15:28N 34°33' E 138°53'612.5
2018-Apr-19 14:57N 34°36' E 138°46'612.9
2018-Apr-19 14:30N 34°40' E 138°41'613.0
2018-Apr-19 14:00N 34°46' E 138°39'713.1
2018-Apr-19 13:30N 34°53' E 138°37'613.0
2018-Apr-19 13:00N 34°59' E 138°35'4 8.6
2018-Apr-19 12:30N 35°00' E 138°30'1 1.7
2018-Apr-19 11:58N 34°60' E 138°30'0 0.0
2018-Apr-19 11:28N 34°60' E 138°30'0 0.0
2018-Apr-19 10:58N 34°60' E 138°30'0 0.0
2018-Apr-19 10:28N 34°60' E 138°30'0 0.0
2018-Apr-19 09:58N 34°60' E 138°30'0 0.0
2018-Apr-19 09:28N 34°60' E 138°30'0 0.0
2018-Apr-19 08:58N 34°60' E 138°30'0 0.0
2018-Apr-19 08:28N 34°60' E 138°30'0 0.0
2018-Apr-19 07:58N 34°60' E 138°30'0 0.0
2018-Apr-19 07:28N 34°60' E 138°30'0 0.0
2018-Apr-19 06:58N 34°60' E 138°30'0 0.0
2018-Apr-19 06:28N 34°60' E 138°30'0 0.0
2018-Apr-19 05:55N 34°60' E 138°30'0 0.0
2018-Apr-19 05:28N 34°60' E 138°30'0 0.0
2018-Apr-19 04:58N 34°60' E 138°30'0 0.4
2018-Apr-19 04:30N 34°60' E 138°30'3 5.2
2018-Apr-19 04:00N 35°01' E 138°33'713.0
2018-Apr-19 03:30N 34°54' E 138°31'612.9
2018-Apr-19 03:00N 34°49' E 138°28'612.9
2018-Apr-19 02:30N 34°43' E 138°25'712.4
2018-Apr-19 01:58N 34°37' E 138°21'611.6
2018-Apr-19 01:29N 34°32' E 138°17'912.5
2018-Apr-19 00:45N 34°28' E 138°07'312.4
2018-Apr-19 00:29N 34°27' E 138°03'15510.3
2018-Apr-18 09:30N 33°50' E 135°02'612.4
2018-Apr-18 09:00N 33°55' E 134°58'612.2
2018-Apr-18 08:30N 34°01' E 134°58'713.1
2018-Apr-18 08:01N 34°08' E 134°58'714.9
2018-Apr-18 07:30N 34°15' E 134°59'713.8
2018-Apr-18 07:01N 34°22' E 134°60'713.4
2018-Apr-18 06:30N 34°29' E 135°02'713.7
2018-Apr-18 06:01N 34°35' E 135°03'713.7
2018-Apr-18 05:31N 34°37' E 134°55'714.6
2018-Apr-18 05:00N 34°39' E 134°47'612.9
2018-Apr-18 04:31N 34°41' E 134°39'612.7
2018-Apr-18 04:01N 34°42' E 134°32'8 9.2
2018-Apr-18 03:06N 34°45' E 134°22'0 0.5
2018-Apr-18 03:00N 34°45' E 134°22'0 0.0
2018-Apr-17 23:07N 34°45' E 134°22'0 0.0
2018-Apr-17 22:49N 34°45' E 134°22'0 0.0
2018-Apr-17 22:19N 34°45' E 134°22'0 0.0
2018-Apr-17 21:55N 34°45' E 134°22'0 0.0
2018-Apr-17 21:13N 34°45' E 134°22'0 0.0
2018-Apr-17 20:55N 34°45' E 134°22'0 0.0
2018-Apr-17 15:37N 34°45' E 134°22'0 0.0
2018-Apr-17 15:19N 34°45' E 134°22'0 0.0
2018-Apr-17 14:57N 34°45' E 134°22'2 3.7
2018-Apr-17 14:29N 34°43' E 134°22'2 5.0
2018-Apr-17 14:00N 34°41' E 134°24'0 0.1
2018-Apr-17 13:28N 34°41' E 134°24'0 0.0
2018-Apr-17 12:58N 34°41' E 134°24'0 0.0
2018-Apr-17 12:22N 34°41' E 134°24'0 0.1
2018-Apr-17 11:58N 34°41' E 134°24'0 0.0
2018-Apr-17 11:22N 34°41' E 134°24'0 0.4
2018-Apr-17 10:59N 34°41' E 134°24'612.1
2018-Apr-17 10:30N 34°42' E 134°31'713.3
2018-Apr-17 10:00N 34°42' E 134°39'713.1
2018-Apr-17 09:30N 34°39' E 134°46'713.7
2018-Apr-17 09:00N 34°37' E 134°54'612.7
2018-Apr-17 08:30N 34°37' E 135°02'4 8.7
2018-Apr-17 08:00N 34°33' E 135°05'713.4
2018-Apr-17 07:30N 34°27' E 135°03'613.0
2018-Apr-17 07:00N 34°21' E 135°01'611.4
2018-Apr-17 06:30N 34°15' E 134°59'511.0
2018-Apr-17 06:00N 34°09' E 134°60'612.2
2018-Apr-17 05:30N 34°03' E 134°59'612.6
2018-Apr-17 05:00N 33°57' E 134°59'611.6
2018-Apr-17 04:30N 33°51' E 135°00'712.1
2018-Apr-17 03:55N 33°46' E 135°07'17212.0
2018-Apr-16 13:36N 34°27' E 138°29'713.1
2018-Apr-16 13:03N 34°29' E 138°38'212.9
2018-Apr-16 12:52N 34°29' E 138°40'1012.8
2018-Apr-16 12:07N 34°30' E 138°52'112.6
2018-Apr-16 12:00N 34°31' E 138°54'611.7
2018-Apr-16 11:29N 34°33' E 139°00'612.8
2018-Apr-16 10:59N 34°38' E 139°05'913.1
2018-Apr-16 10:16N 34°46' E 139°12'313.3
2018-Apr-16 10:00N 34°48' E 139°15'712.7
2018-Apr-16 09:30N 34°52' E 139°21'812.1
2018-Apr-16 08:49N 34°57' E 139°29'412.2
2018-Apr-16 08:30N 34°60' E 139°33'612.1
2018-Apr-16 08:00N 35°03' E 139°38'713.2
2018-Apr-16 07:30N 35°08' E 139°44'612.7
2018-Apr-16 07:00N 35°14' E 139°46'611.6
2018-Apr-16 06:30N 35°19' E 139°43'612.2
2018-Apr-16 06:00N 35°25' E 139°42'1 1.4
2018-Apr-16 05:29N 35°26' E 139°41'0 0.0
2018-Apr-16 04:59N 35°26' E 139°41'0 0.0
2018-Apr-16 04:29N 35°26' E 139°41'0 0.0
2018-Apr-16 03:54N 35°26' E 139°41'0 0.0
2018-Apr-16 03:29N 35°26' E 139°41'0 0.0
2018-Apr-16 03:00N 35°26' E 139°41'0 0.0
2018-Apr-16 02:26N 35°26' E 139°41'0 0.0
2018-Apr-16 01:59N 35°26' E 139°41'0 0.0
2018-Apr-16 01:29N 35°26' E 139°41'0 0.0
2018-Apr-16 00:59N 35°26' E 139°41'0 0.0
2018-Apr-16 00:26N 35°26' E 139°41'0 0.0
2018-Apr-15 23:59N 35°26' E 139°41'0 0.0
2018-Apr-15 23:26N 35°26' E 139°41'0 0.0
2018-Apr-15 23:00N 35°26' E 139°41'0 0.0
2018-Apr-15 22:29N 35°26' E 139°41'2 3.2
2018-Apr-15 22:00N 35°26' E 139°43'714.0
2018-Apr-15 21:30N 35°30' E 139°49'510.5
2018-Apr-15 21:00N 35°35' E 139°47'3 0.2
2018-Apr-15 05:10N 35°38' E 139°45'0 0.3
2018-Apr-15 05:00N 35°38' E 139°46'2 4.5
2018-Apr-15 04:30N 35°36' E 139°47'611.4
2018-Apr-15 04:00N 35°33' E 139°52'2 0.6
2018-Apr-15 01:02N 35°33' E 139°55'0 0.0
2018-Apr-15 00:35N 35°33' E 139°55'0 0.0
2018-Apr-15 00:23N 35°33' E 139°55'0 0.0
2018-Apr-14 22:20N 35°33' E 139°55'0 0.0
2018-Apr-14 21:50N 35°33' E 139°55'0 0.0
2018-Apr-14 19:59N 35°33' E 139°55'0 0.0
2018-Apr-14 19:26N 35°33' E 139°55'0 0.0
2018-Apr-14 18:56N 35°33' E 139°55'0 0.1
2018-Apr-14 18:23N 35°33' E 139°55'2 4.7
2018-Apr-14 18:00N 35°31' E 139°54'510.8
2018-Apr-14 17:30N 35°27' E 139°50'612.5
2018-Apr-14 17:00N 35°22' E 139°45'611.9
2018-Apr-14 16:30N 35°16' E 139°47'713.0
2018-Apr-14 16:00N 35°09' E 139°47'611.9
2018-Apr-14 15:30N 35°04' E 139°44'612.6
2018-Apr-14 15:00N 34°60' E 139°38'713.3
2018-Apr-14 14:31N 34°56' E 139°31'814.4
2018-Apr-14 13:57N 34°52' E 139°23'814.7
2018-Apr-14 13:24N 34°46' E 139°16'715.2
2018-Apr-14 12:56N 34°41' E 139°10'  

Dump ship's entire track history